createdAt,value
2022-09-26T00:01:31.742Z,90.34
2022-09-26T00:04:06.830Z,90.45
2022-09-26T00:06:33.844Z,90.22
2022-09-26T00:09:00.728Z,90.42
2022-09-26T00:11:31.626Z,90.38
2022-09-26T00:14:02.349Z,89.91
2022-09-26T00:16:29.412Z,90.15
2022-09-26T00:18:57.910Z,89.56
2022-09-26T00:21:26.457Z,89.98
2022-09-26T00:23:54.337Z,89.92
2022-09-26T00:26:23.049Z,90.51
2022-09-26T00:28:50.803Z,90.56
2022-09-26T00:31:22.034Z,89.76
2022-09-26T00:33:49.179Z,90.38
2022-09-26T00:36:16.588Z,90.65
2022-09-26T00:38:44.012Z,90.04
2022-09-26T00:41:11.741Z,89.95
2022-09-26T00:43:50.378Z,90.39
2022-09-26T00:46:28.438Z,90.25
2022-09-26T00:49:07.414Z,90.20
2022-09-26T00:51:37.036Z,89.91
2022-09-26T00:54:05.349Z,89.89
2022-09-26T00:56:36.534Z,89.88
2022-09-26T00:59:19.517Z,90.51
2022-09-26T01:01:46.906Z,90.07
2022-09-26T01:04:14.703Z,89.86
2022-09-26T01:06:42.440Z,89.98
2022-09-26T01:09:09.678Z,90.12
2022-09-26T01:11:38.632Z,90.49
2022-09-26T01:14:08.009Z,90.01
2022-09-26T01:16:36.446Z,90.05
2022-09-26T01:19:25.085Z,90.00
2022-09-26T01:21:54.950Z,90.34
2022-09-26T01:24:40.120Z,89.95
2022-09-26T01:27:23.580Z,89.66
2022-09-26T01:30:07.643Z,89.27
2022-09-26T01:33:40.621Z,88.97
2022-09-26T01:36:35.448Z,89.10
2022-09-26T01:39:11.604Z,89.42
2022-09-26T01:41:45.428Z,89.49
2022-09-26T01:44:44.183Z,88.96
2022-09-26T01:47:21.984Z,89.99
2022-09-26T01:50:13.190Z,89.79
2022-09-26T01:52:45.107Z,89.67
2022-09-26T01:55:22.123Z,89.74
2022-09-26T01:58:02.077Z,90.00
2022-09-26T02:00:30.062Z,90.44
2022-09-26T02:02:59.983Z,90.44
2022-09-26T02:05:33.344Z,90.33
2022-09-26T02:08:45.005Z,90.32
2022-09-26T02:11:21.479Z,89.84
2022-09-26T02:14:04.266Z,90.23
2022-09-26T02:16:37.313Z,90.06
2022-09-26T02:19:20.352Z,90.08
2022-09-26T02:21:48.228Z,90.25
2022-09-26T02:24:15.697Z,90.14
2022-09-26T02:26:42.793Z,90.26
2022-09-26T02:29:13.402Z,89.94
2022-09-26T02:31:58.626Z,89.77
2022-09-26T02:34:26.404Z,89.88
2022-09-26T02:36:55.834Z,89.84
2022-09-26T02:39:25.576Z,90.12
2022-09-26T02:42:36.805Z,89.70
2022-09-26T02:45:34.339Z,89.98
2022-09-26T02:48:35.943Z,89.27
2022-09-26T02:51:21.750Z,89.80
2022-09-26T02:54:10.110Z,89.86
2022-09-26T02:57:31.163Z,89.36
2022-09-26T03:00:10.144Z,89.21
2022-09-26T03:02:59.940Z,89.16
2022-09-26T03:05:31.040Z,89.23
2022-09-26T03:08:17.775Z,89.30
2022-09-26T03:10:47.047Z,89.76
2022-09-26T03:13:16.897Z,89.92
2022-09-26T03:15:48.978Z,89.88
2022-09-26T03:18:20.763Z,89.74
2022-09-26T03:20:48.603Z,89.25
2022-09-26T03:23:16.072Z,88.95
2022-09-26T03:25:45.023Z,89.03
2022-09-26T03:28:15.186Z,88.83
2022-09-26T03:30:42.312Z,89.23
2022-09-26T03:33:25.729Z,88.99
2022-09-26T03:35:54.433Z,88.33
2022-09-26T03:38:22.585Z,88.43
2022-09-26T03:41:02.860Z,88.17
2022-09-26T03:43:45.003Z,88.02
2022-09-26T03:46:13.336Z,88.35
2022-09-26T03:48:40.485Z,88.55
2022-09-26T03:51:13.614Z,88.26
2022-09-26T03:53:43.234Z,88.45
2022-09-26T03:56:17.503Z,87.64
2022-09-26T03:58:45.190Z,88.35
2022-09-26T04:01:15.609Z,88.77
2022-09-26T04:03:50.325Z,88.37
2022-09-26T04:06:20.653Z,87.89
2022-09-26T04:08:50.462Z,87.86
2022-09-26T04:11:20.587Z,87.94
2022-09-26T04:13:52.888Z,87.93
2022-09-26T04:16:23.989Z,87.97
2022-09-26T04:18:57.725Z,88.22
2022-09-26T04:21:27.432Z,87.67
2022-09-26T04:23:57.219Z,88.10
2022-09-26T04:26:24.753Z,88.30
2022-09-26T04:28:55.191Z,88.65
2022-09-26T04:31:27.751Z,88.54
2022-09-26T04:34:04.723Z,89.29
2022-09-26T04:36:32.782Z,89.29
2022-09-26T04:39:00.795Z,89.72
2022-09-26T04:41:29.986Z,89.42
2022-09-26T04:43:58.551Z,89.23
2022-09-26T04:46:30.683Z,88.86
2022-09-26T04:49:01.104Z,89.15
2022-09-26T04:51:30.355Z,89.51
2022-09-26T04:53:58.699Z,89.57
2022-09-26T04:56:29.184Z,89.77
2022-09-26T04:58:57.971Z,89.22
2022-09-26T05:01:28.115Z,88.96
2022-09-26T05:04:05.964Z,88.80
2022-09-26T05:06:33.915Z,88.72
2022-09-26T05:09:04.369Z,88.58
2022-09-26T05:11:40.992Z,88.36
2022-09-26T05:14:10.771Z,88.04
2022-09-26T05:16:40.172Z,88.34
2022-09-26T05:19:12.015Z,87.84
2022-09-26T05:21:53.994Z,87.91
2022-09-26T05:24:39.510Z,87.99
2022-09-26T05:27:08.228Z,88.13
2022-09-26T05:29:35.205Z,88.57
2022-09-26T05:32:04.819Z,88.17
2022-09-26T05:34:36.181Z,88.47
2022-09-26T05:37:04.162Z,88.97
2022-09-26T05:39:50.730Z,88.85
2022-09-26T05:42:17.721Z,88.76
2022-09-26T05:44:44.700Z,88.17
2022-09-26T05:47:13.273Z,88.14
2022-09-26T05:49:40.601Z,88.43
2022-09-26T05:52:10.705Z,87.78
2022-09-26T05:54:37.573Z,88.45
2022-09-26T05:57:20.821Z,88.20
2022-09-26T05:59:53.446Z,88.19
2022-09-26T06:02:26.290Z,87.49
2022-09-26T06:05:12.333Z,87.31
2022-09-26T06:07:59.902Z,86.86
2022-09-26T06:10:43.482Z,86.57
2022-09-26T06:13:10.479Z,85.89
2022-09-26T06:15:48.571Z,85.88
2022-09-26T06:18:15.462Z,86.01
2022-09-26T06:20:42.382Z,85.49
2022-09-26T06:23:09.350Z,85.23
2022-09-26T06:25:38.626Z,85.48
2022-09-26T06:28:06.755Z,86.11
2022-09-26T06:30:36.318Z,86.96
2022-09-26T06:33:11.405Z,86.43
2022-09-26T06:36:07.416Z,87.87
2022-09-26T06:38:36.839Z,87.64
2022-09-26T06:41:07.600Z,87.37
2022-09-26T06:43:34.834Z,87.03
2022-09-26T06:46:22.295Z,86.74
2022-09-26T06:48:58.359Z,86.89
2022-09-26T06:51:44.021Z,86.95
2022-09-26T06:54:11.152Z,86.97
2022-09-26T06:56:38.096Z,86.84
2022-09-26T06:59:05.296Z,86.72
2022-09-26T07:01:34.428Z,86.53
2022-09-26T07:04:20.188Z,85.96
2022-09-26T07:07:06.206Z,85.87
2022-09-26T07:09:33.904Z,85.61
2022-09-26T07:12:44.186Z,84.79
2022-09-26T07:15:13.912Z,84.19
2022-09-26T07:17:42.122Z,84.12
2022-09-26T07:20:34.028Z,82.87
2022-09-26T07:23:05.126Z,83.71
2022-09-26T07:25:33.571Z,83.60
2022-09-26T07:28:02.507Z,82.95
2022-09-26T07:30:44.731Z,82.92
2022-09-26T07:33:50.343Z,82.43
2022-09-26T07:36:18.628Z,81.81
2022-09-26T07:38:48.674Z,81.67
2022-09-26T07:41:17.934Z,81.02
2022-09-26T07:46:51.512Z,79.57
2022-09-26T07:49:37.210Z,79.28
2022-09-26T07:52:36.376Z,78.66
2022-09-26T07:55:26.085Z,77.74
2022-09-26T07:58:03.061Z,77.72
2022-09-26T08:00:48.502Z,76.43
2022-09-26T08:03:28.806Z,75.76
2022-09-26T08:06:02.447Z,74.91
2022-09-26T08:08:30.591Z,73.15
2022-09-26T08:11:03.959Z,74.87
2022-09-26T08:14:01.825Z,74.84
2022-09-26T08:16:39.769Z,76.04
2022-09-26T08:19:08.335Z,78.25
2022-09-26T08:21:35.579Z,78.91
2022-09-26T08:24:02.729Z,79.58
2022-09-26T08:26:32.273Z,80.51
2022-09-26T08:29:04.903Z,79.70
2022-09-26T08:31:32.262Z,79.43
2022-09-26T08:33:59.294Z,79.01
2022-09-26T08:36:27.221Z,79.46
2022-09-26T08:39:11.160Z,78.49
2022-09-26T08:42:08.720Z,78.52
2022-09-26T08:45:02.132Z,77.36
2022-09-26T08:47:53.795Z,76.61
2022-09-26T08:50:53.782Z,77.06
2022-09-26T08:53:30.914Z,76.27
2022-09-26T08:56:00.075Z,77.80
2022-09-26T08:58:43.234Z,74.63
2022-09-26T09:01:34.620Z,76.12
2022-09-26T09:04:28.490Z,75.84
2022-09-26T09:07:05.705Z,75.99
2022-09-26T09:09:32.927Z,75.77
2022-09-26T09:12:25.498Z,74.83
2022-09-26T09:15:43.287Z,73.99
2022-09-26T09:18:45.833Z,74.42
2022-09-26T09:21:41.930Z,73.26
2022-09-26T09:24:30.621Z,72.42
2022-09-26T09:30:52.169Z,71.67
2022-09-26T09:33:49.547Z,72.56
2022-09-26T09:36:48.843Z,73.52
2022-09-26T09:39:44.393Z,75.13
2022-09-26T09:42:43.717Z,75.05
2022-09-26T09:45:23.740Z,75.31
2022-09-26T09:47:51.542Z,75.29
2022-09-26T09:50:43.452Z,75.92
2022-09-26T09:53:38.238Z,76.77
2022-09-26T09:56:20.278Z,76.49
2022-09-26T09:59:36.903Z,78.33
2022-09-26T10:02:19.759Z,78.80
2022-09-26T10:05:02.357Z,79.74
2022-09-26T10:07:30.537Z,80.14
2022-09-26T10:10:23.060Z,80.20
2022-09-26T10:13:11.187Z,78.63
2022-09-26T10:16:08.556Z,76.85
2022-09-26T10:19:03.551Z,76.19
2022-09-26T10:21:41.310Z,74.80
2022-09-26T10:24:25.964Z,74.33
2022-09-26T10:26:59.565Z,73.68
2022-09-26T10:29:36.887Z,73.73
2022-09-26T10:32:05.053Z,73.04
2022-09-26T10:34:35.172Z,72.49
2022-09-26T10:37:24.710Z,72.18
2022-09-26T10:40:43.755Z,71.12
2022-09-26T10:43:38.127Z,71.50
2022-09-26T10:46:25.458Z,71.72
2022-09-26T10:49:15.760Z,71.67
2022-09-26T10:51:50.449Z,72.03
2022-09-26T10:54:23.724Z,72.84
2022-09-26T10:56:58.110Z,73.57
2022-09-26T10:59:31.617Z,73.50
2022-09-26T11:01:59.663Z,73.27
2022-09-26T11:04:49.010Z,73.54
2022-09-26T11:07:52.575Z,73.76
2022-09-26T11:10:48.986Z,75.15
2022-09-26T11:13:30.251Z,75.04
2022-09-26T11:16:14.819Z,74.51
2022-09-26T11:18:51.144Z,74.03
2022-09-26T11:21:29.206Z,74.87
2022-09-26T11:24:03.032Z,74.73
2022-09-26T11:26:49.469Z,73.79
2022-09-26T11:29:39.878Z,74.42
2022-09-26T11:32:28.789Z,75.88
2022-09-26T11:35:21.119Z,76.72
2022-09-26T11:38:27.132Z,76.51
2022-09-26T11:41:18.231Z,77.13
2022-09-26T11:44:23.790Z,77.18
2022-09-26T11:47:39.868Z,77.83
2022-09-26T11:50:25.610Z,76.99
2022-09-26T11:53:26.828Z,78.13
2022-09-26T11:56:31.028Z,77.58
2022-09-26T11:59:17.325Z,78.22
2022-09-26T12:02:02.203Z,78.16
2022-09-26T12:04:49.995Z,79.54
2022-09-26T12:07:32.210Z,81.01
2022-09-26T12:10:26.325Z,81.40
2022-09-26T12:13:38.403Z,81.42
2022-09-26T12:16:40.363Z,80.65
2022-09-26T12:19:17.203Z,80.85
2022-09-26T12:22:08.649Z,80.14
2022-09-26T12:25:08.119Z,80.74
2022-09-26T12:27:45.238Z,79.46
2022-09-26T12:30:21.678Z,78.81
2022-09-26T12:33:23.383Z,78.16
2022-09-26T12:36:22.357Z,78.02
2022-09-26T12:39:15.517Z,77.30
2022-09-26T12:42:01.183Z,76.64
2022-09-26T12:45:09.727Z,77.68
2022-09-26T12:47:55.704Z,77.99
2022-09-26T12:50:56.990Z,77.00
2022-09-26T12:54:03.560Z,77.47
2022-09-26T12:56:54.865Z,77.76
2022-09-26T12:59:38.815Z,78.06
2022-09-26T13:02:06.111Z,78.10
2022-09-26T13:04:57.703Z,78.40
2022-09-26T13:07:53.609Z,79.10
2022-09-26T13:10:47.453Z,79.91
2022-09-26T13:13:18.281Z,79.90
2022-09-26T13:16:13.439Z,80.02
2022-09-26T13:18:45.567Z,80.56
2022-09-26T13:21:21.572Z,80.43
2022-09-26T13:23:57.926Z,80.21
2022-09-26T13:26:33.958Z,79.39
2022-09-26T13:29:17.725Z,80.08
2022-09-26T13:31:55.985Z,80.02
2022-09-26T13:34:38.145Z,79.67
2022-09-26T13:37:14.471Z,79.22
2022-09-26T13:39:52.010Z,79.50
2022-09-26T13:42:32.787Z,80.78
2022-09-26T13:45:19.151Z,79.57
2022-09-26T13:48:01.330Z,80.19
2022-09-26T13:50:43.592Z,80.52
2022-09-26T13:53:10.556Z,80.71
2022-09-26T13:55:37.572Z,81.03
2022-09-26T13:58:21.244Z,81.63
2022-09-26T14:00:54.877Z,81.53
2022-09-26T14:03:23.473Z,82.05
2022-09-26T14:05:52.827Z,82.53
2022-09-26T14:08:44.547Z,83.66
2022-09-26T14:11:30.749Z,83.46
2022-09-26T14:14:19.454Z,82.94
2022-09-26T14:16:52.818Z,83.10
2022-09-26T14:19:42.561Z,84.35
2022-09-26T14:22:18.860Z,84.10
2022-09-26T14:24:57.026Z,83.90
2022-09-26T14:27:39.689Z,83.96
2022-09-26T14:30:27.328Z,85.33
2022-09-26T14:33:02.352Z,84.63
2022-09-26T14:35:35.256Z,85.32
2022-09-26T14:38:08.304Z,85.95
2022-09-26T14:40:37.934Z,85.72
2022-09-26T14:43:16.094Z,86.38
2022-09-26T14:45:53.558Z,86.72
2022-09-26T14:48:40.100Z,87.30
2022-09-26T14:51:15.682Z,87.51
2022-09-26T14:53:48.404Z,88.06
2022-09-26T14:56:19.078Z,88.12
2022-09-26T14:58:50.093Z,87.90
2022-09-26T15:01:37.577Z,88.73
2022-09-26T15:04:10.460Z,90.07
2022-09-26T15:06:42.399Z,88.69
2022-09-26T15:09:11.963Z,89.38
2022-09-26T15:11:45.777Z,89.41
2022-09-26T15:14:26.135Z,91.35
2022-09-26T15:16:55.748Z,90.45
2022-09-26T15:19:28.658Z,90.38
2022-09-26T15:22:02.778Z,90.45
2022-09-26T15:24:33.541Z,92.06
2022-09-26T15:27:09.175Z,91.80
2022-09-26T15:29:42.502Z,91.47
2022-09-26T15:32:20.547Z,91.77
2022-09-26T15:34:48.087Z,91.63
2022-09-26T15:37:19.887Z,91.77
2022-09-26T15:39:46.910Z,91.45
2022-09-26T15:42:39.477Z,91.65
2022-09-26T15:45:29.956Z,91.44
2022-09-26T15:47:59.095Z,91.38
2022-09-26T15:50:31.006Z,91.20
2022-09-26T15:53:21.134Z,91.99
2022-09-26T15:56:17.128Z,92.48
2022-09-26T15:59:11.824Z,92.51
2022-09-26T16:01:44.595Z,92.97
2022-09-26T16:04:22.010Z,93.67
2022-09-26T16:06:59.341Z,93.01
2022-09-26T16:09:35.550Z,92.89
2022-09-26T16:12:10.373Z,92.87
2022-09-26T16:14:47.599Z,93.25
2022-09-26T16:17:36.357Z,93.45
2022-09-26T16:20:15.450Z,93.71
2022-09-26T16:22:51.786Z,93.36
2022-09-26T16:25:23.129Z,93.38
2022-09-26T16:27:58.371Z,93.52
2022-09-26T16:30:27.958Z,94.34
2022-09-26T16:33:15.370Z,94.27
2022-09-26T16:35:46.679Z,94.62
2022-09-26T16:38:28.068Z,94.39
2022-09-26T16:41:07.927Z,94.80
2022-09-26T16:43:37.405Z,94.87
2022-09-26T16:46:07.589Z,95.09
2022-09-26T16:48:53.406Z,95.20
2022-09-26T16:51:36.352Z,95.60
2022-09-26T16:54:08.919Z,95.31
2022-09-26T16:56:40.456Z,95.36
2022-09-26T16:59:32.470Z,95.85
2022-09-26T17:02:02.449Z,94.96
2022-09-26T17:04:35.812Z,95.46
2022-09-26T17:07:12.752Z,95.61
2022-09-26T17:09:42.108Z,95.97
2022-09-26T17:12:19.774Z,95.54
2022-09-26T17:14:51.996Z,95.47
2022-09-26T17:17:25.372Z,95.81
2022-09-26T17:19:59.080Z,95.87
2022-09-26T17:22:27.708Z,95.33
2022-09-26T17:24:55.259Z,95.12
2022-09-26T17:27:27.120Z,94.63
2022-09-26T17:29:59.737Z,94.74
2022-09-26T17:32:30.718Z,95.00
2022-09-26T17:34:59.986Z,94.59
2022-09-26T17:37:27.842Z,93.97
2022-09-26T17:39:55.675Z,94.13
2022-09-26T17:42:23.851Z,93.62
2022-09-26T17:44:51.219Z,94.02
2022-09-26T17:47:19.703Z,93.49
2022-09-26T17:49:56.249Z,93.14
2022-09-26T17:52:25.317Z,93.03
2022-09-26T17:54:57.447Z,93.43
2022-09-26T17:57:30.285Z,93.28
2022-09-26T17:59:58.067Z,93.04
2022-09-26T18:02:27.959Z,93.51
2022-09-26T18:04:55.445Z,93.65
2022-09-26T18:07:22.565Z,93.16
2022-09-26T18:09:51.412Z,93.42
2022-09-26T18:12:22.092Z,93.71
2022-09-26T18:14:51.245Z,93.54
2022-09-26T18:17:18.690Z,93.92
2022-09-26T18:19:46.847Z,93.74
2022-09-26T18:22:20.042Z,93.85
2022-09-26T18:24:50.866Z,94.26
2022-09-26T18:27:18.048Z,94.45
2022-09-26T18:29:48.676Z,95.10
2022-09-26T18:32:33.511Z,95.04
2022-09-26T18:35:01.031Z,95.22
2022-09-26T18:37:29.872Z,95.08
2022-09-26T18:40:01.440Z,95.47
2022-09-26T18:42:33.198Z,95.59
2022-09-26T18:45:05.708Z,96.12
2022-09-26T18:47:37.928Z,96.02
2022-09-26T18:50:06.493Z,96.41
2022-09-26T18:52:33.508Z,96.26
2022-09-26T18:55:20.681Z,97.10
2022-09-26T18:58:05.883Z,98.23
2022-09-26T19:00:32.798Z,96.87
2022-09-26T19:03:00.084Z,97.67
2022-09-26T19:05:27.155Z,98.04
2022-09-26T19:07:54.180Z,98.11
2022-09-26T19:10:22.928Z,97.65
2022-09-26T19:12:49.893Z,98.22
2022-09-26T19:15:17.545Z,98.19
2022-09-26T19:17:44.546Z,98.67
2022-09-26T19:20:11.477Z,98.57
2022-09-26T19:22:38.518Z,99.36
2022-09-26T19:25:06.497Z,99.15
2022-09-26T19:27:42.702Z,99.67
2022-09-26T19:30:17.229Z,99.74
2022-09-26T19:32:49.389Z,99.35
2022-09-26T19:35:24.669Z,99.82
2022-09-26T19:37:52.056Z,99.52
2022-09-26T19:40:21.405Z,100.00
2022-09-26T19:42:49.046Z,99.68
2022-09-26T19:45:17.020Z,99.92
2022-09-26T19:47:47.485Z,100.00
2022-09-26T19:50:25.940Z,99.95
2022-09-26T19:52:55.308Z,100.00
2022-09-26T19:55:27.927Z,100.00
2022-09-26T19:57:58.820Z,100.00
2022-09-26T20:00:26.599Z,100.00
2022-09-26T20:02:54.326Z,100.00
2022-09-26T20:05:24.598Z,100.00
2022-09-26T20:07:52.606Z,100.00
2022-09-26T20:10:25.261Z,100.00
2022-09-26T20:12:52.897Z,100.00
2022-09-26T20:15:22.915Z,100.00
2022-09-26T20:17:50.923Z,100.00
2022-09-26T20:20:21.799Z,100.00
2022-09-26T20:22:51.128Z,100.00
2022-09-26T20:25:27.933Z,100.00
2022-09-26T20:27:54.924Z,100.00
2022-09-26T20:30:41.263Z,100.00
2022-09-26T20:33:10.233Z,100.00
2022-09-26T20:35:41.228Z,100.00
2022-09-26T20:38:14.978Z,100.00
2022-09-26T20:40:42.070Z,100.00
2022-09-26T20:43:16.969Z,100.00
2022-09-26T20:45:45.010Z,100.00
2022-09-26T20:48:22.322Z,100.00
2022-09-26T20:50:50.564Z,100.00
2022-09-26T20:53:19.824Z,100.00
2022-09-26T20:55:47.917Z,100.00
2022-09-26T20:58:14.999Z,100.00
2022-09-26T21:00:43.334Z,100.00
2022-09-26T21:03:12.033Z,100.00
2022-09-26T21:05:39.422Z,100.00
2022-09-26T21:08:16.170Z,100.00
2022-09-26T21:10:42.942Z,100.00
2022-09-26T21:13:09.953Z,100.00
2022-09-26T21:15:37.192Z,100.00
2022-09-26T21:18:04.236Z,100.00
2022-09-26T21:20:33.670Z,100.00
2022-09-26T21:23:20.549Z,100.00
2022-09-26T21:25:47.577Z,100.00
2022-09-26T21:28:27.062Z,100.00
2022-09-26T21:31:04.732Z,100.00
2022-09-26T21:33:31.939Z,100.00
2022-09-26T21:35:58.935Z,100.00
2022-09-26T21:38:26.911Z,100.00
2022-09-26T21:40:59.938Z,100.00
2022-09-26T21:43:31.551Z,100.00
2022-09-26T21:45:58.653Z,100.00
2022-09-26T21:48:26.216Z,100.00
2022-09-26T21:50:58.684Z,100.00
2022-09-26T21:53:51.284Z,100.00
2022-09-26T21:56:25.809Z,100.00
2022-09-26T21:58:53.309Z,100.00
2022-09-26T22:01:20.655Z,100.00
2022-09-26T22:03:47.706Z,100.00
2022-09-26T22:06:14.688Z,100.00
2022-09-26T22:08:41.626Z,100.00
2022-09-26T22:11:09.169Z,100.00
2022-09-26T22:13:37.622Z,100.00
2022-09-26T22:16:09.480Z,100.00
2022-09-26T22:18:39.012Z,100.00
2022-09-26T22:21:07.514Z,100.00
2022-09-26T22:23:35.485Z,100.00
2022-09-26T22:26:02.687Z,100.00
2022-09-26T22:28:29.632Z,100.00
2022-09-26T22:31:01.325Z,100.00
2022-09-26T22:33:28.412Z,100.00
2022-09-26T22:35:55.411Z,100.00
2022-09-26T22:38:22.444Z,100.00
2022-09-26T22:41:04.242Z,100.00
2022-09-26T22:43:32.155Z,100.00
2022-09-26T22:46:17.463Z,100.00
2022-09-26T22:48:46.913Z,100.00
2022-09-26T22:51:15.303Z,100.00
2022-09-26T22:53:43.790Z,100.00
2022-09-26T22:56:13.425Z,100.00
2022-09-26T22:58:43.784Z,100.00
2022-09-26T23:01:23.496Z,100.00
2022-09-26T23:03:54.800Z,100.00
2022-09-26T23:06:22.864Z,100.00
2022-09-26T23:08:50.337Z,100.00
2022-09-26T23:11:18.435Z,100.00
2022-09-26T23:13:46.257Z,100.00
2022-09-26T23:16:17.186Z,100.00
2022-09-26T23:18:45.314Z,100.00
2022-09-26T23:21:12.184Z,100.00
2022-09-26T23:23:40.101Z,100.00
2022-09-26T23:26:15.853Z,100.00
2022-09-26T23:28:42.847Z,100.00
2022-09-26T23:31:11.226Z,100.00
2022-09-26T23:33:39.256Z,100.00
2022-09-26T23:36:07.382Z,100.00
2022-09-26T23:38:35.847Z,100.00
2022-09-26T23:41:02.853Z,100.00
2022-09-26T23:43:29.940Z,100.00
2022-09-26T23:45:57.281Z,100.00
2022-09-26T23:48:24.392Z,100.00
2022-09-26T23:50:51.300Z,100.00
2022-09-26T23:53:18.372Z,100.00
2022-09-26T23:55:45.289Z,100.00
2022-09-26T23:58:13.601Z,100.00
